sensor_id;sensor_type;location;lat;lon;timestamp;P1;durP1;ratioP1;P2;durP2;ratioP2
65567;SDS011;52211;50.154;8.682;2023-08-21T00:00:34;5.20;;;4.70;;
65567;SDS011;52211;50.154;8.682;2023-08-21T00:03:01;5.57;;;5.03;;
65567;SDS011;52211;50.154;8.682;2023-08-21T00:05:28;6.47;;;5.87;;
65567;SDS011;52211;50.154;8.682;2023-08-21T00:07:55;7.60;;;4.90;;
65567;SDS011;52211;50.154;8.682;2023-08-21T00:10:22;5.87;;;5.37;;
65567;SDS011;52211;50.154;8.682;2023-08-21T00:12:51;6.37;;;5.77;;
65567;SDS011;52211;50.154;8.682;2023-08-21T00:15:20;6.40;;;5.70;;
65567;SDS011;52211;50.154;8.682;2023-08-21T00:17:50;5.33;;;4.83;;
65567;SDS011;52211;50.154;8.682;2023-08-21T00:20:19;5.40;;;5.00;;
65567;SDS011;52211;50.154;8.682;2023-08-21T00:22:46;5.80;;;5.30;;
65567;SDS011;52211;50.154;8.682;2023-08-21T00:25:13;5.63;;;5.13;;
65567;SDS011;52211;50.154;8.682;2023-08-21T00:27:43;5.93;;;4.90;;
65567;SDS011;52211;50.154;8.682;2023-08-21T00:30:10;5.47;;;4.97;;
65567;SDS011;52211;50.154;8.682;2023-08-21T00:32:37;6.17;;;5.60;;
65567;SDS011;52211;50.154;8.682;2023-08-21T00:35:07;6.10;;;5.60;;
65567;SDS011;52211;50.154;8.682;2023-08-21T00:37:34;5.53;;;5.03;;
65567;SDS011;52211;50.154;8.682;2023-08-21T00:40:03;5.47;;;4.97;;
65567;SDS011;52211;50.154;8.682;2023-08-21T00:42:33;5.63;;;5.13;;
65567;SDS011;52211;50.154;8.682;2023-08-21T00:45:00;6.17;;;5.10;;
65567;SDS011;52211;50.154;8.682;2023-08-21T00:47:30;6.03;;;5.30;;
65567;SDS011;52211;50.154;8.682;2023-08-21T00:49:59;6.20;;;5.70;;
65567;SDS011;52211;50.154;8.682;2023-08-21T00:52:27;5.80;;;5.20;;
65567;SDS011;52211;50.154;8.682;2023-08-21T00:54:55;6.27;;;5.73;;
65567;SDS011;52211;50.154;8.682;2023-08-21T00:57:25;5.77;;;5.27;;
65567;SDS011;52211;50.154;8.682;2023-08-21T00:59:59;5.17;;;4.67;;
65567;SDS011;52211;50.154;8.682;2023-08-21T01:02:30;5.17;;;4.67;;
65567;SDS011;52211;50.154;8.682;2023-08-21T01:04:57;11.77;;;5.60;;
65567;SDS011;52211;50.154;8.682;2023-08-21T01:07:30;6.10;;;5.47;;
65567;SDS011;52211;50.154;8.682;2023-08-21T01:10:09;5.67;;;5.17;;
65567;SDS011;52211;50.154;8.682;2023-08-21T01:15:51;6.30;;;5.67;;
65567;SDS011;52211;50.154;8.682;2023-08-21T01:18:26;5.50;;;5.00;;
65567;SDS011;52211;50.154;8.682;2023-08-21T01:20:56;5.40;;;4.90;;
65567;SDS011;52211;50.154;8.682;2023-08-21T01:26:06;6.67;;;5.37;;
65567;SDS011;52211;50.154;8.682;2023-08-21T01:28:35;6.27;;;5.67;;
65567;SDS011;52211;50.154;8.682;2023-08-21T01:31:11;5.77;;;5.07;;
65567;SDS011;52211;50.154;8.682;2023-08-21T01:33:48;5.10;;;4.70;;
65567;SDS011;52211;50.154;8.682;2023-08-21T01:36:23;5.47;;;4.93;;
65567;SDS011;52211;50.154;8.682;2023-08-21T01:38:54;5.63;;;5.13;;
65567;SDS011;52211;50.154;8.682;2023-08-21T01:41:26;5.27;;;4.77;;
65567;SDS011;52211;50.154;8.682;2023-08-21T01:43:55;5.70;;;5.20;;
65567;SDS011;52211;50.154;8.682;2023-08-21T01:46:22;6.17;;;4.73;;
65567;SDS011;52211;50.154;8.682;2023-08-21T01:48:49;5.03;;;4.63;;
65567;SDS011;52211;50.154;8.682;2023-08-21T01:51:23;5.43;;;4.93;;
65567;SDS011;52211;50.154;8.682;2023-08-21T01:53:52;5.30;;;4.90;;
65567;SDS011;52211;50.154;8.682;2023-08-21T01:56:19;5.47;;;4.97;;
65567;SDS011;52211;50.154;8.682;2023-08-21T01:58:48;5.23;;;4.80;;
65567;SDS011;52211;50.154;8.682;2023-08-21T02:01:17;5.87;;;5.33;;
65567;SDS011;52211;50.154;8.682;2023-08-21T02:03:45;5.97;;;5.37;;
65567;SDS011;52211;50.154;8.682;2023-08-21T02:06:14;5.20;;;4.73;;
65567;SDS011;52211;50.154;8.682;2023-08-21T02:08:44;5.83;;;5.33;;
65567;SDS011;52211;50.154;8.682;2023-08-21T02:11:16;5.87;;;5.37;;
65567;SDS011;52211;50.154;8.682;2023-08-21T02:13:48;5.40;;;5.00;;
65567;SDS011;52211;50.154;8.682;2023-08-21T02:16:15;5.77;;;4.70;;
65567;SDS011;52211;50.154;8.682;2023-08-21T02:18:41;6.30;;;5.77;;
65567;SDS011;52211;50.154;8.682;2023-08-21T02:21:11;5.07;;;4.57;;
65567;SDS011;52211;50.154;8.682;2023-08-21T02:23:38;6.00;;;5.40;;
65567;SDS011;52211;50.154;8.682;2023-08-21T02:26:07;4.87;;;4.47;;
65567;SDS011;52211;50.154;8.682;2023-08-21T02:28:38;5.80;;;5.20;;
65567;SDS011;52211;50.154;8.682;2023-08-21T02:31:10;5.40;;;4.93;;
65567;SDS011;52211;50.154;8.682;2023-08-21T02:33:44;6.03;;;5.43;;
65567;SDS011;52211;50.154;8.682;2023-08-21T02:36:13;5.57;;;5.07;;
65567;SDS011;52211;50.154;8.682;2023-08-21T02:38:42;5.63;;;5.03;;
65567;SDS011;52211;50.154;8.682;2023-08-21T02:41:11;5.50;;;5.00;;
65567;SDS011;52211;50.154;8.682;2023-08-21T02:43:42;5.90;;;5.23;;
65567;SDS011;52211;50.154;8.682;2023-08-21T02:46:11;5.40;;;4.90;;
65567;SDS011;52211;50.154;8.682;2023-08-21T02:48:42;5.27;;;4.77;;
65567;SDS011;52211;50.154;8.682;2023-08-21T02:51:09;6.33;;;5.73;;
65567;SDS011;52211;50.154;8.682;2023-08-21T02:53:36;4.40;;;4.00;;
65567;SDS011;52211;50.154;8.682;2023-08-21T02:56:06;5.37;;;4.90;;
65567;SDS011;52211;50.154;8.682;2023-08-21T02:58:39;6.00;;;5.50;;
65567;SDS011;52211;50.154;8.682;2023-08-21T03:01:13;5.20;;;4.77;;
65567;SDS011;52211;50.154;8.682;2023-08-21T03:03:42;5.47;;;4.97;;
65567;SDS011;52211;50.154;8.682;2023-08-21T03:06:09;5.90;;;5.40;;
65567;SDS011;52211;50.154;8.682;2023-08-21T03:08:36;5.77;;;5.27;;
65567;SDS011;52211;50.154;8.682;2023-08-21T03:11:05;6.17;;;5.40;;
65567;SDS011;52211;50.154;8.682;2023-08-21T03:13:32;5.40;;;5.00;;
65567;SDS011;52211;50.154;8.682;2023-08-21T03:16:01;10.53;;;5.43;;
65567;SDS011;52211;50.154;8.682;2023-08-21T03:18:30;6.27;;;5.67;;
65567;SDS011;52211;50.154;8.682;2023-08-21T03:20:58;6.30;;;5.70;;
65567;SDS011;52211;50.154;8.682;2023-08-21T03:23:25;5.90;;;5.03;;
65567;SDS011;52211;50.154;8.682;2023-08-21T03:25:57;5.57;;;5.07;;
65567;SDS011;52211;50.154;8.682;2023-08-21T03:28:28;6.07;;;5.57;;
65567;SDS011;52211;50.154;8.682;2023-08-21T03:30:57;4.93;;;4.53;;
65567;SDS011;52211;50.154;8.682;2023-08-21T03:33:29;5.17;;;4.73;;
65567;SDS011;52211;50.154;8.682;2023-08-21T03:35:56;6.17;;;5.10;;
65567;SDS011;52211;50.154;8.682;2023-08-21T03:38:26;5.83;;;5.20;;
65567;SDS011;52211;50.154;8.682;2023-08-21T03:40:55;5.77;;;5.23;;
65567;SDS011;52211;50.154;8.682;2023-08-21T03:43:27;5.57;;;5.17;;
65567;SDS011;52211;50.154;8.682;2023-08-21T03:45:56;5.37;;;4.97;;
65567;SDS011;52211;50.154;8.682;2023-08-21T03:48:23;6.27;;;5.67;;
65567;SDS011;52211;50.154;8.682;2023-08-21T03:50:55;5.73;;;5.27;;
65567;SDS011;52211;50.154;8.682;2023-08-21T03:53:22;6.40;;;5.73;;
65567;SDS011;52211;50.154;8.682;2023-08-21T03:55:51;5.93;;;5.43;;
65567;SDS011;52211;50.154;8.682;2023-08-21T03:58:18;6.07;;;5.47;;
65567;SDS011;52211;50.154;8.682;2023-08-21T04:00:51;5.00;;;4.60;;
65567;SDS011;52211;50.154;8.682;2023-08-21T04:03:20;5.93;;;5.43;;
65567;SDS011;52211;50.154;8.682;2023-08-21T04:05:49;5.43;;;5.00;;
65567;SDS011;52211;50.154;8.682;2023-08-21T04:08:18;7.43;;;5.17;;
65567;SDS011;52211;50.154;8.682;2023-08-21T04:10:49;6.20;;;5.60;;
65567;SDS011;52211;50.154;8.682;2023-08-21T04:13:22;5.10;;;4.60;;
65567;SDS011;52211;50.154;8.682;2023-08-21T04:15:53;5.53;;;5.03;;
65567;SDS011;52211;50.154;8.682;2023-08-21T04:18:22;6.10;;;5.60;;
65567;SDS011;52211;50.154;8.682;2023-08-21T04:21:07;6.20;;;5.13;;
65567;SDS011;52211;50.154;8.682;2023-08-21T04:23:35;5.67;;;5.07;;
65567;SDS011;52211;50.154;8.682;2023-08-21T04:26:06;5.80;;;5.20;;
65567;SDS011;52211;50.154;8.682;2023-08-21T04:28:36;5.77;;;5.03;;
65567;SDS011;52211;50.154;8.682;2023-08-21T04:31:04;5.30;;;4.90;;
65567;SDS011;52211;50.154;8.682;2023-08-21T04:33:34;6.27;;;5.60;;
65567;SDS011;52211;50.154;8.682;2023-08-21T04:36:02;5.67;;;5.17;;
65567;SDS011;52211;50.154;8.682;2023-08-21T04:38:32;5.40;;;4.50;;
65567;SDS011;52211;50.154;8.682;2023-08-21T04:41:08;6.80;;;5.80;;
65567;SDS011;52211;50.154;8.682;2023-08-21T04:43:40;5.87;;;5.37;;
65567;SDS011;52211;50.154;8.682;2023-08-21T04:46:10;6.40;;;5.77;;
65567;SDS011;52211;50.154;8.682;2023-08-21T04:48:39;7.37;;;5.70;;
65567;SDS011;52211;50.154;8.682;2023-08-21T04:51:06;5.87;;;5.37;;
65567;SDS011;52211;50.154;8.682;2023-08-21T04:53:33;5.57;;;4.93;;
65567;SDS011;52211;50.154;8.682;2023-08-21T04:56:09;5.17;;;4.77;;
65567;SDS011;52211;50.154;8.682;2023-08-21T04:58:36;6.20;;;5.60;;
65567;SDS011;52211;50.154;8.682;2023-08-21T05:01:06;5.73;;;5.23;;
65567;SDS011;52211;50.154;8.682;2023-08-21T05:03:36;5.33;;;4.93;;
65567;SDS011;52211;50.154;8.682;2023-08-21T05:06:04;9.17;;;5.00;;
65567;SDS011;52211;50.154;8.682;2023-08-21T05:08:32;6.43;;;5.83;;
65567;SDS011;52211;50.154;8.682;2023-08-21T05:11:07;5.63;;;4.37;;
65567;SDS011;52211;50.154;8.682;2023-08-21T05:13:41;5.10;;;4.70;;
65567;SDS011;52211;50.154;8.682;2023-08-21T05:16:12;5.90;;;5.30;;
65567;SDS011;52211;50.154;8.682;2023-08-21T05:18:44;5.20;;;4.70;;
65567;SDS011;52211;50.154;8.682;2023-08-21T05:21:14;5.07;;;4.63;;
65567;SDS011;52211;50.154;8.682;2023-08-21T05:23:42;5.10;;;4.70;;
65567;SDS011;52211;50.154;8.682;2023-08-21T05:26:09;5.37;;;4.87;;
65567;SDS011;52211;50.154;8.682;2023-08-21T05:28:38;5.00;;;4.60;;
65567;SDS011;52211;50.154;8.682;2023-08-21T05:31:10;4.80;;;4.40;;
65567;SDS011;52211;50.154;8.682;2023-08-21T05:33:53;5.73;;;4.73;;
65567;SDS011;52211;50.154;8.682;2023-08-21T05:36:25;7.17;;;4.87;;
65567;SDS011;52211;50.154;8.682;2023-08-21T05:38:52;6.10;;;4.83;;
65567;SDS011;52211;50.154;8.682;2023-08-21T05:41:19;5.00;;;4.60;;
65567;SDS011;52211;50.154;8.682;2023-08-21T05:43:46;4.70;;;4.20;;
65567;SDS011;52211;50.154;8.682;2023-08-21T05:46:15;4.80;;;4.30;;
65567;SDS011;52211;50.154;8.682;2023-08-21T05:48:45;5.30;;;4.80;;
65567;SDS011;52211;50.154;8.682;2023-08-21T05:51:12;4.70;;;4.30;;
65567;SDS011;52211;50.154;8.682;2023-08-21T05:53:41;4.77;;;4.37;;
65567;SDS011;52211;50.154;8.682;2023-08-21T05:56:11;5.17;;;4.67;;
65567;SDS011;52211;50.154;8.682;2023-08-21T05:58:38;5.53;;;5.03;;
65567;SDS011;52211;50.154;8.682;2023-08-21T06:01:10;4.97;;;4.47;;
65567;SDS011;52211;50.154;8.682;2023-08-21T06:03:38;5.10;;;4.70;;
65567;SDS011;52211;50.154;8.682;2023-08-21T06:06:21;4.67;;;4.30;;
65567;SDS011;52211;50.154;8.682;2023-08-21T06:08:48;4.80;;;4.40;;
65567;SDS011;52211;50.154;8.682;2023-08-21T06:11:17;5.07;;;4.57;;
65567;SDS011;52211;50.154;8.682;2023-08-21T06:13:49;4.83;;;4.43;;
65567;SDS011;52211;50.154;8.682;2023-08-21T06:16:16;5.20;;;4.20;;
65567;SDS011;52211;50.154;8.682;2023-08-21T06:18:50;4.97;;;4.47;;
65567;SDS011;52211;50.154;8.682;2023-08-21T06:21:19;4.83;;;4.43;;
65567;SDS011;52211;50.154;8.682;2023-08-21T06:23:49;5.20;;;4.80;;
65567;SDS011;52211;50.154;8.682;2023-08-21T06:26:18;9.40;;;5.30;;
65567;SDS011;52211;50.154;8.682;2023-08-21T06:28:47;5.47;;;4.97;;
65567;SDS011;52211;50.154;8.682;2023-08-21T06:31:17;4.63;;;4.23;;
65567;SDS011;52211;50.154;8.682;2023-08-21T06:33:47;5.33;;;4.73;;
65567;SDS011;52211;50.154;8.682;2023-08-21T06:36:16;5.17;;;4.77;;
65567;SDS011;52211;50.154;8.682;2023-08-21T06:38:48;4.87;;;4.47;;
65567;SDS011;52211;50.154;8.682;2023-08-21T06:41:18;5.73;;;4.60;;
65567;SDS011;52211;50.154;8.682;2023-08-21T06:43:48;4.80;;;4.40;;
65567;SDS011;52211;50.154;8.682;2023-08-21T06:46:17;5.97;;;5.10;;
65567;SDS011;52211;50.154;8.682;2023-08-21T06:48:46;4.40;;;4.10;;
65567;SDS011;52211;50.154;8.682;2023-08-21T06:51:13;4.73;;;4.23;;
65567;SDS011;52211;50.154;8.682;2023-08-21T06:53:47;4.47;;;4.07;;
65567;SDS011;52211;50.154;8.682;2023-08-21T06:56:16;5.13;;;4.73;;
65567;SDS011;52211;50.154;8.682;2023-08-21T06:58:43;5.47;;;4.97;;
65567;SDS011;52211;50.154;8.682;2023-08-21T07:01:15;6.73;;;5.17;;
65567;SDS011;52211;50.154;8.682;2023-08-21T07:03:44;5.23;;;4.73;;
65567;SDS011;52211;50.154;8.682;2023-08-21T07:06:11;4.60;;;4.20;;
65567;SDS011;52211;50.154;8.682;2023-08-21T07:08:40;4.50;;;4.10;;
65567;SDS011;52211;50.154;8.682;2023-08-21T07:11:07;5.20;;;4.70;;
65567;SDS011;52211;50.154;8.682;2023-08-21T07:13:36;5.67;;;5.00;;
65567;SDS011;52211;50.154;8.682;2023-08-21T07:16:05;4.90;;;4.50;;
65567;SDS011;52211;50.154;8.682;2023-08-21T07:18:33;12.60;;;4.90;;
65567;SDS011;52211;50.154;8.682;2023-08-21T07:21:02;5.00;;;4.40;;
65567;SDS011;52211;50.154;8.682;2023-08-21T07:23:47;5.20;;;4.77;;
65567;SDS011;52211;50.154;8.682;2023-08-21T07:26:19;6.20;;;4.70;;
65567;SDS011;52211;50.154;8.682;2023-08-21T07:28:51;4.60;;;4.20;;
65567;SDS011;52211;50.154;8.682;2023-08-21T07:31:19;5.27;;;4.83;;
65567;SDS011;52211;50.154;8.682;2023-08-21T07:33:46;5.43;;;4.93;;
65567;SDS011;52211;50.154;8.682;2023-08-21T07:36:15;5.13;;;4.40;;
65567;SDS011;52211;50.154;8.682;2023-08-21T07:38:45;5.00;;;4.60;;
65567;SDS011;52211;50.154;8.682;2023-08-21T07:41:14;5.03;;;4.60;;
65567;SDS011;52211;50.154;8.682;2023-08-21T07:43:43;4.70;;;3.80;;
65567;SDS011;52211;50.154;8.682;2023-08-21T07:46:11;4.67;;;4.27;;
65567;SDS011;52211;50.154;8.682;2023-08-21T07:48:45;5.17;;;4.63;;
65567;SDS011;52211;50.154;8.682;2023-08-21T07:51:14;4.90;;;4.50;;
65567;SDS011;52211;50.154;8.682;2023-08-21T07:53:46;4.90;;;4.50;;
65567;SDS011;52211;50.154;8.682;2023-08-21T07:56:15;5.77;;;4.70;;
65567;SDS011;52211;50.154;8.682;2023-08-21T07:58:44;5.00;;;4.60;;
65567;SDS011;52211;50.154;8.682;2023-08-21T08:01:16;5.17;;;4.67;;
65567;SDS011;52211;50.154;8.682;2023-08-21T08:03:47;5.23;;;4.50;;
65567;SDS011;52211;50.154;8.682;2023-08-21T08:06:16;5.60;;;5.00;;
65567;SDS011;52211;50.154;8.682;2023-08-21T08:08:46;5.67;;;5.07;;
65567;SDS011;52211;50.154;8.682;2023-08-21T08:11:13;5.53;;;5.13;;
65567;SDS011;52211;50.154;8.682;2023-08-21T08:13:42;6.83;;;5.10;;
65567;SDS011;52211;50.154;8.682;2023-08-21T08:16:11;5.10;;;4.70;;
65567;SDS011;52211;50.154;8.682;2023-08-21T08:18:38;5.87;;;4.73;;
65567;SDS011;52211;50.154;8.682;2023-08-21T08:21:10;4.83;;;4.47;;
65567;SDS011;52211;50.154;8.682;2023-08-21T08:23:37;4.60;;;4.20;;
65567;SDS011;52211;50.154;8.682;2023-08-21T08:26:04;5.47;;;5.00;;
65567;SDS011;52211;50.154;8.682;2023-08-21T08:28:33;4.70;;;4.30;;
65567;SDS011;52211;50.154;8.682;2023-08-21T08:31:02;5.30;;;4.80;;
65567;SDS011;52211;50.154;8.682;2023-08-21T08:33:29;5.60;;;5.10;;
65567;SDS011;52211;50.154;8.682;2023-08-21T08:35:56;5.33;;;4.83;;
65567;SDS011;52211;50.154;8.682;2023-08-21T08:38:26;4.30;;;4.00;;
65567;SDS011;52211;50.154;8.682;2023-08-21T08:40:55;4.37;;;4.07;;
65567;SDS011;52211;50.154;8.682;2023-08-21T08:43:28;4.80;;;4.43;;
65567;SDS011;52211;50.154;8.682;2023-08-21T08:45:57;4.87;;;4.47;;
65567;SDS011;52211;50.154;8.682;2023-08-21T08:48:26;5.90;;;5.40;;
65567;SDS011;52211;50.154;8.682;2023-08-21T08:50:55;5.43;;;5.03;;
65567;SDS011;52211;50.154;8.682;2023-08-21T08:53:25;5.80;;;5.40;;
65567;SDS011;52211;50.154;8.682;2023-08-21T08:55:57;5.80;;;5.30;;
65567;SDS011;52211;50.154;8.682;2023-08-21T08:58:28;5.10;;;4.60;;
65567;SDS011;52211;50.154;8.682;2023-08-21T09:00:58;5.70;;;5.20;;
65567;SDS011;52211;50.154;8.682;2023-08-21T09:03:27;4.93;;;4.43;;
65567;SDS011;52211;50.154;8.682;2023-08-21T09:05:57;6.60;;;4.90;;
65567;SDS011;52211;50.154;8.682;2023-08-21T09:08:26;5.30;;;4.90;;
65567;SDS011;52211;50.154;8.682;2023-08-21T09:10:58;5.53;;;4.97;;
65567;SDS011;52211;50.154;8.682;2023-08-21T09:13:30;5.37;;;4.87;;
65567;SDS011;52211;50.154;8.682;2023-08-21T09:16:00;6.43;;;4.77;;
65567;SDS011;52211;50.154;8.682;2023-08-21T09:18:30;6.73;;;6.00;;
65567;SDS011;52211;50.154;8.682;2023-08-21T09:21:03;6.30;;;5.80;;
65567;SDS011;52211;50.154;8.682;2023-08-21T09:23:34;5.80;;;5.23;;
65567;SDS011;52211;50.154;8.682;2023-08-21T09:26:03;5.73;;;5.23;;
65567;SDS011;52211;50.154;8.682;2023-08-21T09:28:40;5.20;;;4.73;;
65567;SDS011;52211;50.154;8.682;2023-08-21T09:31:07;6.03;;;5.43;;
65567;SDS011;52211;50.154;8.682;2023-08-21T09:33:36;5.07;;;4.67;;
65567;SDS011;52211;50.154;8.682;2023-08-21T09:36:03;4.83;;;4.43;;
65567;SDS011;52211;50.154;8.682;2023-08-21T09:38:33;5.67;;;5.17;;
65567;SDS011;52211;50.154;8.682;2023-08-21T09:41:03;7.07;;;4.57;;
65567;SDS011;52211;50.154;8.682;2023-08-21T09:43:30;5.00;;;4.60;;
65567;SDS011;52211;50.154;8.682;2023-08-21T09:46:01;5.13;;;4.63;;
65567;SDS011;52211;50.154;8.682;2023-08-21T09:48:35;5.37;;;4.90;;
65567;SDS011;52211;50.154;8.682;2023-08-21T09:51:10;5.37;;;4.30;;
65567;SDS011;52211;50.154;8.682;2023-08-21T09:53:42;5.70;;;5.10;;
65567;SDS011;52211;50.154;8.682;2023-08-21T09:56:13;5.80;;;5.20;;
65567;SDS011;52211;50.154;8.682;2023-08-21T09:58:40;5.73;;;5.23;;
65567;SDS011;52211;50.154;8.682;2023-08-21T10:01:09;5.63;;;5.13;;
65567;SDS011;52211;50.154;8.682;2023-08-21T10:03:41;4.97;;;4.50;;
65567;SDS011;52211;50.154;8.682;2023-08-21T10:06:16;5.43;;;5.03;;
65567;SDS011;52211;50.154;8.682;2023-08-21T10:08:48;5.07;;;4.67;;
65567;SDS011;52211;50.154;8.682;2023-08-21T10:11:23;5.07;;;4.60;;
65567;SDS011;52211;50.154;8.682;2023-08-21T10:13:52;5.23;;;4.80;;
65567;SDS011;52211;50.154;8.682;2023-08-21T10:16:25;6.90;;;5.27;;
65567;SDS011;52211;50.154;8.682;2023-08-21T10:18:52;6.33;;;5.83;;
65567;SDS011;52211;50.154;8.682;2023-08-21T10:21:26;5.03;;;4.53;;
65567;SDS011;52211;50.154;8.682;2023-08-21T10:24:07;5.10;;;4.70;;
65567;SDS011;52211;50.154;8.682;2023-08-21T10:26:37;5.23;;;4.83;;
65567;SDS011;52211;50.154;8.682;2023-08-21T10:29:06;5.60;;;5.10;;
65567;SDS011;52211;50.154;8.682;2023-08-21T10:31:34;4.33;;;3.93;;
65567;SDS011;52211;50.154;8.682;2023-08-21T10:34:07;4.53;;;4.13;;
65567;SDS011;52211;50.154;8.682;2023-08-21T10:47:22;3.97;;;3.67;;
65567;SDS011;52211;50.154;8.682;2023-08-21T10:49:58;4.07;;;3.77;;
65567;SDS011;52211;50.154;8.682;2023-08-21T10:52:30;4.20;;;3.90;;
65567;SDS011;52211;50.154;8.682;2023-08-21T10:55:11;4.73;;;3.87;;
65567;SDS011;52211;50.154;8.682;2023-08-21T10:57:43;4.30;;;4.00;;
65567;SDS011;52211;50.154;8.682;2023-08-21T11:00:12;4.30;;;4.00;;
65567;SDS011;52211;50.154;8.682;2023-08-21T11:02:44;3.90;;;3.33;;
65567;SDS011;52211;50.154;8.682;2023-08-21T11:05:15;3.45;;;3.25;;
65567;SDS011;52211;50.154;8.682;2023-08-21T11:07:46;3.57;;;3.30;;
65567;SDS011;52211;50.154;8.682;2023-08-21T11:10:16;3.50;;;3.20;;
65567;SDS011;52211;50.154;8.682;2023-08-21T11:12:58;3.80;;;3.40;;
65567;SDS011;52211;50.154;8.682;2023-08-21T11:15:29;4.43;;;4.03;;
65567;SDS011;52211;50.154;8.682;2023-08-21T11:18:01;4.47;;;4.10;;
65567;SDS011;52211;50.154;8.682;2023-08-21T11:20:33;5.57;;;3.77;;
65567;SDS011;52211;50.154;8.682;2023-08-21T11:23:03;3.57;;;3.27;;
65567;SDS011;52211;50.154;8.682;2023-08-21T11:25:34;3.80;;;3.50;;
65567;SDS011;52211;50.154;8.682;2023-08-21T11:28:11;5.13;;;3.28;;
65567;SDS011;52211;50.154;8.682;2023-08-21T11:30:42;3.70;;;3.42;;
65567;SDS011;52211;50.154;8.682;2023-08-21T11:33:12;4.47;;;3.30;;
65567;SDS011;52211;50.154;8.682;2023-08-21T11:35:42;4.07;;;3.73;;
65567;SDS011;52211;50.154;8.682;2023-08-21T11:38:19;3.97;;;3.63;;
65567;SDS011;52211;50.154;8.682;2023-08-21T11:43:38;3.45;;;3.15;;
65567;SDS011;52211;50.154;8.682;2023-08-21T11:46:08;3.10;;;2.83;;
65567;SDS011;52211;50.154;8.682;2023-08-21T11:48:38;3.17;;;2.95;;
65567;SDS011;52211;50.154;8.682;2023-08-21T11:51:07;3.72;;;3.42;;
65567;SDS011;52211;50.154;8.682;2023-08-21T11:53:35;4.70;;;3.50;;
65567;SDS011;52211;50.154;8.682;2023-08-21T11:56:12;3.60;;;3.30;;
65567;SDS011;52211;50.154;8.682;2023-08-21T11:58:49;2.42;;;2.30;;
65567;SDS011;52211;50.154;8.682;2023-08-21T12:01:18;3.10;;;2.90;;
65567;SDS011;52211;50.154;8.682;2023-08-21T12:03:49;3.40;;;3.08;;
65567;SDS011;52211;50.154;8.682;2023-08-21T12:06:23;3.47;;;3.17;;
65567;SDS011;52211;50.154;8.682;2023-08-21T12:08:54;2.75;;;2.50;;
65567;SDS011;52211;50.154;8.682;2023-08-21T12:11:23;3.00;;;2.80;;
65567;SDS011;52211;50.154;8.682;2023-08-21T12:13:50;3.25;;;2.78;;
65567;SDS011;52211;50.154;8.682;2023-08-21T12:16:18;2.85;;;2.65;;
65567;SDS011;52211;50.154;8.682;2023-08-21T12:18:49;2.10;;;2.00;;
65567;SDS011;52211;50.154;8.682;2023-08-21T12:21:18;1.75;;;1.65;;
65567;SDS011;52211;50.154;8.682;2023-08-21T12:23:47;1.85;;;1.75;;
65567;SDS011;52211;50.154;8.682;2023-08-21T12:26:21;1.95;;;1.85;;
65567;SDS011;52211;50.154;8.682;2023-08-21T12:28:59;1.60;;;1.50;;
65567;SDS011;52211;50.154;8.682;2023-08-21T12:31:29;3.72;;;1.92;;
65567;SDS011;52211;50.154;8.682;2023-08-21T12:34:00;1.63;;;1.52;;
65567;SDS011;52211;50.154;8.682;2023-08-21T12:36:36;2.00;;;1.90;;
65567;SDS011;52211;50.154;8.682;2023-08-21T12:39:06;2.65;;;1.88;;
65567;SDS011;52211;50.154;8.682;2023-08-21T12:41:33;2.00;;;1.60;;
65567;SDS011;52211;50.154;8.682;2023-08-21T12:44:05;1.45;;;1.40;;
65567;SDS011;52211;50.154;8.682;2023-08-21T12:46:35;1.55;;;1.45;;
65567;SDS011;52211;50.154;8.682;2023-08-21T12:49:05;1.60;;;1.50;;
65567;SDS011;52211;50.154;8.682;2023-08-21T12:51:32;2.05;;;1.58;;
65567;SDS011;52211;50.154;8.682;2023-08-21T12:54:01;2.03;;;1.85;;
65567;SDS011;52211;50.154;8.682;2023-08-21T12:56:34;2.05;;;1.52;;
65567;SDS011;52211;50.154;8.682;2023-08-21T12:59:03;1.30;;;1.17;;
65567;SDS011;52211;50.154;8.682;2023-08-21T13:01:33;1.10;;;1.10;;
65567;SDS011;52211;50.154;8.682;2023-08-21T13:04:03;1.67;;;1.30;;
65567;SDS011;52211;50.154;8.682;2023-08-21T13:06:33;1.55;;;1.45;;
65567;SDS011;52211;50.154;8.682;2023-08-21T13:09:00;1.80;;;1.70;;
65567;SDS011;52211;50.154;8.682;2023-08-21T13:11:32;1.52;;;1.30;;
65567;SDS011;52211;50.154;8.682;2023-08-21T13:13:58;1.35;;;1.27;;
65567;SDS011;52211;50.154;8.682;2023-08-21T13:16:25;1.65;;;1.55;;
65567;SDS011;52211;50.154;8.682;2023-08-21T13:18:57;1.60;;;1.50;;
65567;SDS011;52211;50.154;8.682;2023-08-21T13:21:26;1.25;;;1.25;;
65567;SDS011;52211;50.154;8.682;2023-08-21T13:23:53;1.95;;;1.85;;
65567;SDS011;52211;50.154;8.682;2023-08-21T13:26:20;1.73;;;1.63;;
65567;SDS011;52211;50.154;8.682;2023-08-21T13:28:55;1.85;;;1.75;;
65567;SDS011;52211;50.154;8.682;2023-08-21T13:31:26;1.88;;;1.77;;
65567;SDS011;52211;50.154;8.682;2023-08-21T13:33:55;2.13;;;2.03;;
65567;SDS011;52211;50.154;8.682;2023-08-21T13:36:29;2.05;;;1.95;;
65567;SDS011;52211;50.154;8.682;2023-08-21T13:38:58;3.42;;;2.00;;
65567;SDS011;52211;50.154;8.682;2023-08-21T13:41:27;1.92;;;1.83;;
65567;SDS011;52211;50.154;8.682;2023-08-21T13:43:56;2.42;;;2.00;;
65567;SDS011;52211;50.154;8.682;2023-08-21T13:46:25;3.42;;;2.15;;
65567;SDS011;52211;50.154;8.682;2023-08-21T13:48:52;3.03;;;2.60;;
65567;SDS011;52211;50.154;8.682;2023-08-21T13:51:21;2.13;;;1.83;;
65567;SDS011;52211;50.154;8.682;2023-08-21T13:53:50;2.20;;;2.08;;
65567;SDS011;52211;50.154;8.682;2023-08-21T13:56:20;1.98;;;1.88;;
65567;SDS011;52211;50.154;8.682;2023-08-21T13:58:51;2.30;;;1.90;;
65567;SDS011;52211;50.154;8.682;2023-08-21T14:01:21;2.15;;;1.88;;
65567;SDS011;52211;50.154;8.682;2023-08-21T14:03:50;2.42;;;1.95;;
65567;SDS011;52211;50.154;8.682;2023-08-21T14:06:17;2.10;;;2.00;;
65567;SDS011;52211;50.154;8.682;2023-08-21T14:08:44;1.92;;;1.83;;
65567;SDS011;52211;50.154;8.682;2023-08-21T14:11:11;2.88;;;2.40;;
65567;SDS011;52211;50.154;8.682;2023-08-21T14:13:41;2.15;;;2.05;;
65567;SDS011;52211;50.154;8.682;2023-08-21T14:16:08;2.30;;;2.20;;
65567;SDS011;52211;50.154;8.682;2023-08-21T14:18:41;2.83;;;2.63;;
65567;SDS011;52211;50.154;8.682;2023-08-21T14:21:11;2.03;;;1.92;;
65567;SDS011;52211;50.154;8.682;2023-08-21T14:23:39;2.35;;;2.15;;
65567;SDS011;52211;50.154;8.682;2023-08-21T14:26:09;4.30;;;2.30;;
65567;SDS011;52211;50.154;8.682;2023-08-21T14:28:36;2.22;;;1.98;;
65567;SDS011;52211;50.154;8.682;2023-08-21T14:31:03;2.42;;;2.20;;
65567;SDS011;52211;50.154;8.682;2023-08-21T14:33:32;2.75;;;2.55;;
65567;SDS011;52211;50.154;8.682;2023-08-21T14:35:59;2.40;;;2.22;;
65567;SDS011;52211;50.154;8.682;2023-08-21T14:38:31;2.72;;;2.40;;
65567;SDS011;52211;50.154;8.682;2023-08-21T14:41:00;2.40;;;2.20;;
65567;SDS011;52211;50.154;8.682;2023-08-21T14:43:32;2.88;;;2.67;;
65567;SDS011;52211;50.154;8.682;2023-08-21T14:46:01;2.25;;;2.15;;
65567;SDS011;52211;50.154;8.682;2023-08-21T14:48:33;2.28;;;2.17;;
65567;SDS011;52211;50.154;8.682;2023-08-21T14:51:00;2.55;;;2.08;;
65567;SDS011;52211;50.154;8.682;2023-08-21T14:53:30;2.10;;;2.00;;
65567;SDS011;52211;50.154;8.682;2023-08-21T14:55:59;2.33;;;2.10;;
65567;SDS011;52211;50.154;8.682;2023-08-21T14:58:29;2.30;;;2.10;;
65567;SDS011;52211;50.154;8.682;2023-08-21T15:00:58;3.17;;;2.13;;
65567;SDS011;52211;50.154;8.682;2023-08-21T15:03:30;1.88;;;1.77;;
65567;SDS011;52211;50.154;8.682;2023-08-21T15:05:59;2.72;;;2.50;;
65567;SDS011;52211;50.154;8.682;2023-08-21T15:08:26;2.03;;;1.92;;
65567;SDS011;52211;50.154;8.682;2023-08-21T15:10:57;2.28;;;2.15;;
65567;SDS011;52211;50.154;8.682;2023-08-21T15:13:23;2.17;;;1.98;;
65567;SDS011;52211;50.154;8.682;2023-08-21T15:15:55;2.13;;;2.03;;
65567;SDS011;52211;50.154;8.682;2023-08-21T15:18:24;2.25;;;2.15;;
65567;SDS011;52211;50.154;8.682;2023-08-21T15:20:51;5.15;;;1.90;;
65567;SDS011;52211;50.154;8.682;2023-08-21T15:23:25;2.50;;;2.30;;